createdAt,value
2018-04-12T00:00:00.644Z,11.30
2018-04-12T00:02:28.880Z,11.30
2018-04-12T00:04:56.420Z,11.30
2018-04-12T00:07:23.893Z,11.30
2018-04-12T00:09:52.112Z,11.30
2018-04-12T00:12:20.364Z,11.20
2018-04-12T00:14:48.166Z,11.20
2018-04-12T00:17:16.195Z,11.10
2018-04-12T00:19:43.760Z,11.10
2018-04-12T00:22:11.324Z,11.00
2018-04-12T00:24:39.625Z,10.90
2018-04-12T00:27:07.118Z,10.90
2018-04-12T00:29:34.585Z,10.90
2018-04-12T00:32:02.181Z,10.70
2018-04-12T00:34:30.644Z,10.60
2018-04-12T00:36:58.111Z,10.60
2018-04-12T00:39:25.592Z,10.50
2018-04-12T00:41:53.209Z,10.50
2018-04-12T00:44:20.675Z,10.50
2018-04-12T00:46:48.245Z,10.40
2018-04-12T00:49:16.203Z,10.30
2018-04-12T00:51:43.668Z,10.30
2018-04-12T00:54:11.227Z,10.20
2018-04-12T00:56:38.984Z,10.20
2018-04-12T00:59:06.548Z,10.20
2018-04-12T01:01:34.117Z,10.10
2018-04-12T01:04:02.591Z,9.90
2018-04-12T01:06:30.060Z,9.90
2018-04-12T01:08:58.305Z,9.80
2018-04-12T01:11:26.388Z,9.80
2018-04-12T01:13:53.952Z,9.90
2018-04-12T01:16:21.516Z,10.00
2018-04-12T01:18:49.892Z,10.00
2018-04-12T01:21:17.465Z,10.00
2018-04-12T01:23:45.698Z,10.00
2018-04-12T01:26:13.300Z,10.00
2018-04-12T01:28:41.570Z,10.00
2018-04-12T01:31:09.844Z,10.00
2018-04-12T01:33:38.321Z,10.00
2018-04-12T01:36:05.881Z,9.90
2018-04-12T01:38:33.436Z,9.90
2018-04-12T01:41:01.051Z,9.90
2018-04-12T01:43:28.568Z,9.90
2018-04-12T01:45:56.801Z,10.00
2018-04-12T01:48:24.460Z,9.90
2018-04-12T01:50:52.508Z,10.00
2018-04-12T01:53:20.101Z,9.90
2018-04-12T01:55:47.577Z,9.90
2018-04-12T01:58:15.209Z,9.90
2018-04-12T02:00:43.001Z,9.90
2018-04-12T02:03:10.536Z,9.90
2018-04-12T02:05:38.057Z,9.90
2018-04-12T02:08:06.001Z,9.90
2018-04-12T02:10:34.267Z,9.90
2018-04-12T02:13:02.545Z,9.90
2018-04-12T02:15:31.123Z,10.00
2018-04-12T02:17:59.369Z,10.00
2018-04-12T02:20:26.838Z,10.00
2018-04-12T02:22:54.809Z,10.00
2018-04-12T02:25:22.384Z,10.00
2018-04-12T02:27:50.659Z,10.00
2018-04-12T02:30:18.316Z,9.90
2018-04-12T02:32:45.872Z,9.90
2018-04-12T02:35:13.436Z,10.00
2018-04-12T02:37:41.085Z,10.00
2018-04-12T02:40:08.657Z,10.00
2018-04-12T02:42:36.215Z,10.00
2018-04-12T02:45:03.784Z,10.10
2018-04-12T02:47:32.060Z,10.10
2018-04-12T02:50:00.329Z,10.10
2018-04-12T02:52:28.903Z,10.00
2018-04-12T02:54:56.520Z,10.00
2018-04-12T02:57:23.991Z,10.00
2018-04-12T02:59:51.477Z,10.00
2018-04-12T03:02:19.353Z,10.00
2018-04-12T03:04:47.874Z,10.00
2018-04-12T03:07:15.406Z,10.00
2018-04-12T03:09:43.670Z,10.00
2018-04-12T03:12:12.152Z,10.00
2018-04-12T03:14:40.557Z,10.00
2018-04-12T03:17:08.092Z,10.00
2018-04-12T03:19:36.436Z,10.10
2018-04-12T03:22:03.923Z,10.10
2018-04-12T03:24:32.261Z,10.20
2018-04-12T03:27:00.477Z,10.20
2018-04-12T03:29:28.952Z,10.40
2018-04-12T03:31:56.465Z,10.40
2018-04-12T03:34:24.296Z,10.50
2018-04-12T03:36:52.551Z,10.60
2018-04-12T03:39:20.107Z,10.50
2018-04-12T03:41:47.702Z,10.50
2018-04-12T03:44:15.235Z,10.50
2018-04-12T03:46:43.608Z,10.60
2018-04-12T03:49:11.935Z,10.50
2018-04-12T03:51:40.156Z,10.50
2018-04-12T03:54:07.777Z,10.50
2018-04-12T03:56:35.276Z,10.60
2018-04-12T03:59:03.036Z,10.70
2018-04-12T04:01:30.601Z,10.90
2018-04-12T04:03:59.541Z,10.90
2018-04-12T04:06:27.248Z,10.90
2018-04-12T04:08:54.733Z,11.00
2018-04-12T04:11:22.267Z,11.10
2018-04-12T04:13:50.101Z,11.10
2018-04-12T04:16:29.414Z,11.20
2018-04-12T04:19:09.004Z,11.20
2018-04-12T04:21:36.474Z,11.10
2018-04-12T04:24:04.749Z,11.10
2018-04-12T04:26:33.330Z,11.10
2018-04-12T04:29:01.572Z,11.10
2018-04-12T04:31:29.044Z,11.10
2018-04-12T04:33:56.820Z,11.10
2018-04-12T04:36:24.396Z,11.20
2018-04-12T04:38:52.853Z,11.30
2018-04-12T04:41:20.420Z,11.30
2018-04-12T04:43:48.181Z,11.30
2018-04-12T04:46:16.768Z,11.30
2018-04-12T04:48:44.427Z,11.30
2018-04-12T04:51:13.065Z,11.30
2018-04-12T04:53:40.538Z,11.30
2018-04-12T04:56:08.011Z,11.30
2018-04-12T04:58:37.245Z,11.30
2018-04-12T05:01:04.833Z,11.30
2018-04-12T05:03:32.756Z,11.20
2018-04-12T05:06:01.757Z,11.10
2018-04-12T05:08:30.724Z,11.10
2018-04-12T05:10:58.282Z,11.10
2018-04-12T05:13:25.953Z,11.10
2018-04-12T05:15:53.529Z,11.00
2018-04-12T05:18:21.996Z,10.90
2018-04-12T05:20:50.477Z,10.90
2018-04-12T05:23:17.957Z,10.80
2018-04-12T05:25:45.609Z,10.90
2018-04-12T05:28:13.912Z,10.80
2018-04-12T05:30:41.560Z,10.70
2018-04-12T05:33:09.247Z,10.70
2018-04-12T05:35:36.886Z,10.70
2018-04-12T05:38:04.718Z,10.70
2018-04-12T05:40:32.192Z,10.80
2018-04-12T05:43:00.450Z,10.90
2018-04-12T05:45:28.240Z,10.90
2018-04-12T05:47:56.896Z,10.90
2018-04-12T05:50:24.557Z,10.90
2018-04-12T05:52:53.214Z,11.00
2018-04-12T05:55:20.704Z,10.90
2018-04-12T05:57:48.308Z,10.90
2018-04-12T06:00:15.816Z,11.00
2018-04-12T06:02:43.481Z,11.10
2018-04-12T06:05:11.600Z,11.10
2018-04-12T06:07:39.756Z,11.00
2018-04-12T06:10:07.248Z,11.00
2018-04-12T06:12:34.848Z,11.20
2018-04-12T06:15:03.437Z,11.50
2018-04-12T06:17:31.813Z,11.70
2018-04-12T06:20:00.398Z,11.80
2018-04-12T06:22:28.646Z,11.90
2018-04-12T06:24:56.980Z,11.80
2018-04-12T06:27:24.453Z,11.80
2018-04-12T06:29:51.972Z,11.70
2018-04-12T06:32:20.546Z,12.00
2018-04-12T06:34:48.820Z,12.00
2018-04-12T06:37:16.391Z,12.00
2018-04-12T06:39:44.920Z,12.30
2018-04-12T06:42:12.556Z,12.30
2018-04-12T06:44:40.028Z,12.40
2018-04-12T06:47:07.585Z,12.40
2018-04-12T06:49:35.095Z,12.40
2018-04-12T06:52:02.656Z,12.50
2018-04-12T06:54:30.997Z,12.30
2018-04-12T06:56:58.498Z,12.30
2018-04-12T06:59:26.737Z,12.30
2018-04-12T07:01:55.045Z,12.30
2018-04-12T07:04:23.285Z,12.80
2018-04-12T07:06:50.756Z,12.70
2018-04-12T07:09:18.364Z,12.90
2018-04-12T07:11:46.449Z,13.10
2018-04-12T07:14:13.961Z,13.10
2018-04-12T07:16:41.521Z,13.20
2018-04-12T07:19:10.204Z,14.00
2018-04-12T07:21:38.480Z,13.60
2018-04-12T07:24:06.045Z,13.60
2018-04-12T07:26:34.760Z,13.60
2018-04-12T07:29:02.232Z,13.60
2018-04-12T07:31:29.747Z,13.70
2018-04-12T07:33:58.044Z,14.30
2018-04-12T07:36:25.525Z,14.30
2018-04-12T07:38:53.037Z,14.70
2018-04-12T07:41:21.512Z,15.10
2018-04-12T07:43:49.770Z,15.10
2018-04-12T07:46:17.224Z,15.40
2018-04-12T07:48:44.761Z,15.20
2018-04-12T07:51:12.249Z,15.70
2018-04-12T07:53:39.761Z,16.40
2018-04-12T07:56:07.377Z,16.80
2018-04-12T07:58:34.860Z,17.30
2018-04-12T08:01:03.528Z,17.70
2018-04-12T08:03:31.804Z,18.20
2018-04-12T08:06:00.046Z,18.20
2018-04-12T08:08:27.741Z,18.10
2018-04-12T08:10:55.980Z,18.70
2018-04-12T08:13:23.471Z,18.70
2018-04-12T08:15:52.052Z,17.90
2018-04-12T08:18:19.616Z,17.90
2018-04-12T08:20:47.892Z,17.70
2018-04-12T08:23:16.467Z,18.30
2018-04-12T08:25:44.032Z,18.20
2018-04-12T08:28:12.319Z,18.00
2018-04-12T08:30:40.896Z,18.00
2018-04-12T08:33:09.141Z,18.50
2018-04-12T08:35:36.616Z,18.50
2018-04-12T08:38:04.484Z,18.90
2018-04-12T08:40:31.968Z,18.80
2018-04-12T08:43:00.408Z,18.90
2018-04-12T08:45:27.987Z,19.50
2018-04-12T08:47:56.262Z,19.10
2018-04-12T08:50:24.020Z,19.00
2018-04-12T08:52:51.490Z,18.60
2018-04-12T08:55:19.736Z,18.90
2018-04-12T08:57:47.430Z,18.90
2018-04-12T09:00:15.709Z,20.60
2018-04-12T09:02:44.276Z,21.10
2018-04-12T09:05:12.040Z,21.10
2018-04-12T09:07:40.434Z,21.40
2018-04-12T09:10:09.208Z,20.40
2018-04-12T09:12:36.772Z,20.40
2018-04-12T09:15:04.261Z,20.50
2018-04-12T09:17:32.096Z,20.70
2018-04-12T09:19:59.856Z,20.10
2018-04-12T09:22:27.732Z,20.00
2018-04-12T09:24:55.492Z,20.30
2018-04-12T09:27:23.972Z,20.10
2018-04-12T09:29:51.613Z,20.00
2018-04-12T09:32:19.087Z,20.10
2018-04-12T09:34:46.567Z,20.10
2018-04-12T09:37:15.028Z,20.10
2018-04-12T09:39:42.788Z,20.10
2018-04-12T09:42:10.557Z,19.60
2018-04-12T09:44:38.420Z,19.30
2018-04-12T09:47:06.214Z,19.10
2018-04-12T09:49:34.052Z,18.90
2018-04-12T09:52:01.752Z,18.80
2018-04-12T09:54:29.314Z,18.90
2018-04-12T09:56:56.888Z,18.60
2018-04-12T09:59:24.600Z,18.40
2018-04-12T10:01:54.718Z,18.20
2018-04-12T10:04:27.600Z,18.30
2018-04-12T10:07:02.694Z,18.10
2018-04-12T10:09:31.008Z,18.10
2018-04-12T10:12:00.205Z,18.10
2018-04-12T10:14:27.968Z,18.10
2018-04-12T10:16:55.839Z,18.10
2018-04-12T10:19:23.600Z,18.10
2018-04-12T10:21:51.369Z,18.00
2018-04-12T10:24:19.024Z,18.10
2018-04-12T10:26:46.506Z,18.00
2018-04-12T10:29:15.268Z,18.00
2018-04-12T10:31:42.936Z,18.00
2018-04-12T10:34:11.354Z,17.90
2018-04-12T10:36:39.180Z,17.90
2018-04-12T10:39:06.945Z,17.80
2018-04-12T10:41:35.317Z,17.80
2018-04-12T10:44:03.025Z,17.80
2018-04-12T10:46:30.501Z,17.80
2018-04-12T10:48:58.200Z,17.80
2018-04-12T10:51:25.779Z,17.70
2018-04-12T10:53:54.145Z,17.30
2018-04-12T10:56:22.652Z,17.00
2018-04-12T10:58:50.384Z,17.00
2018-04-12T11:01:18.149Z,17.10
2018-04-12T11:03:46.116Z,17.00
2018-04-12T11:06:14.352Z,17.70
2018-04-12T11:08:41.885Z,17.60
2018-04-12T11:11:09.932Z,17.60
2018-04-12T11:13:38.399Z,17.40
2018-04-12T11:16:06.636Z,17.30
2018-04-12T11:18:34.610Z,17.20
2018-04-12T11:21:02.617Z,17.00
2018-04-12T11:23:31.728Z,16.90
2018-04-12T11:25:59.993Z,16.90
2018-04-12T11:28:27.649Z,16.80
2018-04-12T11:30:55.900Z,16.80
2018-04-12T11:33:23.698Z,16.90
2018-04-12T11:35:52.140Z,16.80
2018-04-12T11:38:19.732Z,16.80
2018-04-12T11:40:48.335Z,16.90
2018-04-12T11:43:16.941Z,16.80
2018-04-12T11:45:44.456Z,16.80
2018-04-12T11:48:12.546Z,16.40
2018-04-12T11:50:40.779Z,16.00
2018-04-12T11:53:08.245Z,15.90
2018-04-12T11:55:35.928Z,16.10
2018-04-12T11:58:04.200Z,17.00
2018-04-12T12:00:31.681Z,17.00
2018-04-12T12:03:00.036Z,17.90
2018-04-12T12:05:28.272Z,18.30
2018-04-12T12:07:55.768Z,18.20
2018-04-12T12:10:23.325Z,18.30
2018-04-12T12:12:50.788Z,19.40
2018-04-12T12:15:19.026Z,20.90
2018-04-12T12:17:46.922Z,20.80
2018-04-12T12:20:15.408Z,20.70
2018-04-12T12:22:43.478Z,20.70
2018-04-12T12:25:11.336Z,21.00
2018-04-12T12:27:39.000Z,21.70
2018-04-12T12:30:06.769Z,22.40
2018-04-12T12:32:35.257Z,21.70
2018-04-12T12:35:03.499Z,21.80
2018-04-12T12:37:31.084Z,21.80
2018-04-12T12:39:59.772Z,22.30
2018-04-12T12:42:28.959Z,22.30
2018-04-12T12:44:56.624Z,22.20
2018-04-12T12:47:24.213Z,21.80
2018-04-12T12:49:52.777Z,21.80
2018-04-12T12:52:21.357Z,22.30
2018-04-12T12:54:48.833Z,22.30
2018-04-12T12:57:17.185Z,22.30
2018-04-12T12:59:44.656Z,22.30
2018-04-12T13:02:13.033Z,22.40
2018-04-12T13:04:41.389Z,22.30
2018-04-12T13:07:08.945Z,22.30
2018-04-12T13:09:36.517Z,22.20
2018-04-12T13:12:05.325Z,21.90
2018-04-12T13:14:33.888Z,22.30
2018-04-12T13:17:01.454Z,22.30
2018-04-12T13:19:28.985Z,21.50
2018-04-12T13:21:56.463Z,20.90
2018-04-12T13:24:24.551Z,20.80
2018-04-12T13:26:52.401Z,21.50
2018-04-12T13:29:19.969Z,21.70
2018-04-12T13:31:48.203Z,21.30
2018-04-12T13:34:15.905Z,21.30
2018-04-12T13:36:43.456Z,21.00
2018-04-12T13:39:10.920Z,20.10
2018-04-12T13:41:38.453Z,20.00
2018-04-12T13:44:06.079Z,19.70
2018-04-12T13:46:33.612Z,19.50
2018-04-12T13:49:01.861Z,19.60
2018-04-12T13:51:29.532Z,19.50
2018-04-12T13:53:57.112Z,19.80
2018-04-12T13:56:25.371Z,19.70
2018-04-12T13:58:53.810Z,19.70
2018-04-12T14:01:21.277Z,19.70
2018-04-12T14:03:48.769Z,19.50
2018-04-12T14:06:17.465Z,19.70
2018-04-12T14:08:45.709Z,19.60
2018-04-12T14:11:13.324Z,19.50
2018-04-12T14:13:40.897Z,19.40
2018-04-12T14:16:08.365Z,19.40
2018-04-12T14:18:35.940Z,19.30
2018-04-12T14:21:03.524Z,19.30
2018-04-12T14:23:31.741Z,19.30
2018-04-12T14:25:59.214Z,19.20
2018-04-12T14:28:26.792Z,19.10
2018-04-12T14:30:54.288Z,19.20
2018-04-12T14:33:22.944Z,19.10
2018-04-12T14:35:50.418Z,19.10
2018-04-12T14:38:18.662Z,19.20
2018-04-12T14:40:46.345Z,19.20
2018-04-12T14:43:13.908Z,19.20
2018-04-12T14:45:41.881Z,18.90
2018-04-12T14:48:10.109Z,19.10
2018-04-12T14:50:37.804Z,19.00
2018-04-12T14:53:05.289Z,19.20
2018-04-12T14:55:33.521Z,18.90
2018-04-12T14:58:01.041Z,18.80
2018-04-12T15:00:28.505Z,18.80
2018-04-12T15:02:56.115Z,18.80
2018-04-12T15:05:23.656Z,18.80
2018-04-12T15:07:51.994Z,18.60
2018-04-12T15:10:19.483Z,18.60
2018-04-12T15:12:46.952Z,18.70
2018-04-12T15:15:14.416Z,18.90
2018-04-12T15:17:42.184Z,18.50
2018-04-12T15:20:09.659Z,18.50
2018-04-12T15:22:37.884Z,18.40
2018-04-12T15:25:05.417Z,18.40
2018-04-12T15:27:32.888Z,18.70
2018-04-12T15:30:00.565Z,18.60
2018-04-12T15:32:28.586Z,18.60
2018-04-12T15:34:57.864Z,18.40
2018-04-12T15:37:25.729Z,18.40
2018-04-12T15:39:53.196Z,18.40
2018-04-12T15:42:21.457Z,18.20
2018-04-12T15:44:48.985Z,18.10
2018-04-12T15:47:16.459Z,18.10
2018-04-12T15:49:44.013Z,18.10
2018-04-12T15:52:11.497Z,18.20
2018-04-12T15:54:39.502Z,18.10
2018-04-12T15:57:06.963Z,18.00
2018-04-12T15:59:34.423Z,17.90
2018-04-12T16:02:01.936Z,17.70
2018-04-12T16:04:29.495Z,17.60
2018-04-12T16:06:57.099Z,17.40
2018-04-12T16:09:25.816Z,17.30
2018-04-12T16:11:53.289Z,17.30
2018-04-12T16:14:20.829Z,17.30
2018-04-12T16:16:48.348Z,17.30
2018-04-12T16:19:15.821Z,17.30
2018-04-12T16:21:43.294Z,17.30
2018-04-12T16:24:11.308Z,17.30
2018-04-12T16:26:38.864Z,17.30
2018-04-12T16:29:06.440Z,17.30
2018-04-12T16:31:34.908Z,17.30
2018-04-12T16:34:02.368Z,17.30
2018-04-12T16:36:31.033Z,17.30
2018-04-12T16:38:58.802Z,17.30
2018-04-12T16:41:26.248Z,17.30
2018-04-12T16:43:53.720Z,17.30
2018-04-12T16:46:21.300Z,17.30
2018-04-12T16:48:49.763Z,17.30
2018-04-12T16:51:17.228Z,17.30
2018-04-12T16:53:45.544Z,17.10
2018-04-12T16:56:13.067Z,17.10
2018-04-12T16:58:41.329Z,17.00
2018-04-12T17:01:08.797Z,17.00
2018-04-12T17:03:37.036Z,16.80
2018-04-12T17:06:04.776Z,16.90
2018-04-12T17:08:32.249Z,16.80
2018-04-12T17:10:59.769Z,16.70
2018-04-12T17:13:27.244Z,16.70
2018-04-12T17:15:54.765Z,16.70
2018-04-12T17:18:23.140Z,16.60
2018-04-12T17:20:50.604Z,16.50
2018-04-12T17:23:18.841Z,16.40
2018-04-12T17:25:46.399Z,16.40
2018-04-12T17:28:14.045Z,16.30
2018-04-12T17:30:41.956Z,16.40
2018-04-12T17:33:09.522Z,16.30
2018-04-12T17:35:37.795Z,16.30
2018-04-12T17:38:06.604Z,16.30
2018-04-12T17:40:34.068Z,16.30
2018-04-12T17:43:01.532Z,16.30
2018-04-12T17:45:29.878Z,16.10
2018-04-12T17:47:58.151Z,16.00
2018-04-12T17:50:25.708Z,16.00
2018-04-12T17:52:53.315Z,16.00
2018-04-12T17:55:20.833Z,15.90
2018-04-12T17:57:48.389Z,15.80
2018-04-12T18:00:16.552Z,15.70
2018-04-12T18:02:44.016Z,15.80
2018-04-12T18:05:11.490Z,15.70
2018-04-12T18:07:40.057Z,15.70
2018-04-12T18:10:07.624Z,15.60
2018-04-12T18:12:35.907Z,15.60
2018-04-12T18:15:03.432Z,15.70
2018-04-12T18:17:30.907Z,15.60
2018-04-12T18:19:58.413Z,15.60
2018-04-12T18:22:26.696Z,15.30
2018-04-12T18:24:54.168Z,15.30
2018-04-12T18:27:21.665Z,15.10
2018-04-12T18:29:49.932Z,14.80
2018-04-12T18:32:17.396Z,14.80
2018-04-12T18:34:45.664Z,14.50
2018-04-12T18:37:13.429Z,14.50
2018-04-12T18:39:40.920Z,14.20
2018-04-12T18:42:09.061Z,13.90
2018-04-12T18:44:36.669Z,13.80
2018-04-12T18:47:04.460Z,13.90
2018-04-12T18:49:32.049Z,14.00
2018-04-12T18:52:00.324Z,13.80
2018-04-12T18:54:28.094Z,13.70
2018-04-12T18:56:56.424Z,13.50
2018-04-12T18:59:23.892Z,13.40
2018-04-12T19:01:51.405Z,13.30
2018-04-12T19:04:18.937Z,13.20
2018-04-12T19:06:46.600Z,13.20
2018-04-12T19:09:14.160Z,13.10
2018-04-12T19:11:42.423Z,12.90
2018-04-12T19:14:10.912Z,12.90
2018-04-12T19:16:38.477Z,12.80
2018-04-12T19:19:06.755Z,12.80
2018-04-12T19:21:35.338Z,12.60
2018-04-12T19:24:02.812Z,12.60
2018-04-12T19:26:30.301Z,12.40
2018-04-12T19:28:58.011Z,12.20
2018-04-12T19:31:25.593Z,12.10
2018-04-12T19:33:53.134Z,12.00
2018-04-12T19:36:21.464Z,11.90
2018-04-12T19:38:48.932Z,11.90
2018-04-12T19:41:16.471Z,11.90
2018-04-12T19:43:43.973Z,11.90
2018-04-12T19:46:11.543Z,11.80
2018-04-12T19:48:39.813Z,11.60
2018-04-12T19:51:07.289Z,11.50
2018-04-12T19:53:35.532Z,11.30
2018-04-12T19:56:03.037Z,11.30
2018-04-12T19:58:30.514Z,11.20
2018-04-12T20:00:58.068Z,11.20
2018-04-12T20:03:25.536Z,11.10
2018-04-12T20:05:53.109Z,11.00
2018-04-12T20:08:20.820Z,11.00
2018-04-12T20:10:48.360Z,10.90
2018-04-12T20:13:15.976Z,10.90
2018-04-12T20:15:43.478Z,11.00
2018-04-12T20:18:11.712Z,10.80
2018-04-12T20:20:39.257Z,10.80
2018-04-12T20:23:06.768Z,10.70
2018-04-12T20:25:35.340Z,10.60
2018-04-12T20:28:03.029Z,10.50
2018-04-12T20:30:30.677Z,10.50
2018-04-12T20:32:58.946Z,10.30
2018-04-12T20:35:26.527Z,10.30
2018-04-12T20:37:54.472Z,10.20
2018-04-12T20:40:22.032Z,10.10
2018-04-12T20:42:49.605Z,10.00
2018-04-12T20:45:18.790Z,10.00
2018-04-12T20:47:47.071Z,10.10
2018-04-12T20:50:16.003Z,10.00
2018-04-12T20:52:43.553Z,10.00
2018-04-12T20:55:11.026Z,10.10
2018-04-12T20:57:38.534Z,10.10
2018-04-12T21:00:06.291Z,10.00
2018-04-12T21:02:35.848Z,10.00
2018-04-12T21:05:03.360Z,10.00
2018-04-12T21:07:32.041Z,10.00
2018-04-12T21:09:59.518Z,10.00
2018-04-12T21:12:27.776Z,9.80
2018-04-12T21:14:56.152Z,9.70
2018-04-12T21:17:23.712Z,9.70
2018-04-12T21:19:51.268Z,9.60
2018-04-12T21:22:19.200Z,9.60
2018-04-12T21:24:46.692Z,9.40
2018-04-12T21:27:14.275Z,9.20
2018-04-12T21:29:42.542Z,9.10
2018-04-12T21:32:10.888Z,9.00
2018-04-12T21:34:38.413Z,9.00
2018-04-12T21:37:05.877Z,9.10
2018-04-12T21:39:33.509Z,9.10
2018-04-12T21:42:01.453Z,9.10
2018-04-12T21:44:28.908Z,9.10
2018-04-12T21:46:56.376Z,9.20
2018-04-12T21:49:24.851Z,9.20
2018-04-12T21:51:52.757Z,9.10
2018-04-12T21:54:20.576Z,9.20
2018-04-12T21:56:48.238Z,9.20
2018-04-12T21:59:15.796Z,9.20
2018-04-12T22:01:43.461Z,9.10
2018-04-12T22:04:10.932Z,9.00
2018-04-12T22:06:39.192Z,8.80
2018-04-12T22:09:07.161Z,8.80
2018-04-12T22:11:35.023Z,8.70
2018-04-12T22:14:02.684Z,8.60
2018-04-12T22:16:30.203Z,8.50
2018-04-12T22:18:57.669Z,8.50
2018-04-12T22:21:25.267Z,8.50
2018-04-12T22:23:52.920Z,8.40
2018-04-12T22:26:20.484Z,8.40
2018-04-12T22:28:48.036Z,8.30
2018-04-12T22:31:15.903Z,8.30
2018-04-12T22:33:43.568Z,8.30
2018-04-12T22:36:11.228Z,8.20
2018-04-12T22:38:38.996Z,8.30
2018-04-12T22:41:07.032Z,8.30
2018-04-12T22:43:34.492Z,8.20
2018-04-12T22:46:02.083Z,8.20
2018-04-12T22:48:30.356Z,8.20
2018-04-12T22:50:58.020Z,8.20
2018-04-12T22:53:25.782Z,8.10
2018-04-12T22:55:54.465Z,8.20
2018-04-12T22:58:21.925Z,8.20
2018-04-12T23:00:49.416Z,8.10
2018-04-12T23:03:17.452Z,8.00
2018-04-12T23:05:45.012Z,8.00
2018-04-12T23:08:12.807Z,7.90
2018-04-12T23:10:40.641Z,8.10
2018-04-12T23:13:08.217Z,8.10
2018-04-12T23:15:37.236Z,8.10
2018-04-12T23:18:04.927Z,8.10
2018-04-12T23:20:32.498Z,8.00
2018-04-12T23:22:59.977Z,7.90
2018-04-12T23:25:28.660Z,7.90
2018-04-12T23:27:56.509Z,7.90
2018-04-12T23:30:24.089Z,8.00
2018-04-12T23:32:52.564Z,7.80
2018-04-12T23:35:20.648Z,7.80
2018-04-12T23:37:49.525Z,7.80
2018-04-12T23:40:17.289Z,7.70
2018-04-12T23:42:44.852Z,7.70
2018-04-12T23:45:12.432Z,7.70
2018-04-12T23:47:40.889Z,7.70
2018-04-12T23:50:08.752Z,7.70
2018-04-12T23:52:37.948Z,7.40
2018-04-12T23:55:05.616Z,7.40
2018-04-12T23:57:33.481Z,7.30
